Time;durP1;ratioP1;P1;durP2;ratioP2;P2;SDS_P1;SDS_P2;PMS_P1;PMS_P2;Temp;Humidity;BMP_temperature;BMP_pressure;BME280_temperature;BME280_humidity;BME280_pressure;Samples;Min_cycle;Max_cycle;Signal;HPM_P1;HPM_P2
2021/08/10 00:04:37;;;;;;;9.07;4.10;;;15.40;99.90;;;;;;20775319;28;20065;-50
2021/08/10 00:14:38;;;;;;;7.50;2.70;;;16.00;99.90;;;;;;20665962;28;20102;-50
2021/08/10 00:24:40;;;;;;;3.30;2.20;;;16.10;99.90;;;;;;20674796;28;20034;-52
2021/08/10 00:34:41;;;;;;;4.85;2.47;;;15.60;99.90;;;;;;20674107;28;20082;-50
2021/08/10 00:44:44;;;;;;;4.68;3.10;;;15.10;99.90;;;;;;20655803;28;20038;-50
2021/08/10 00:54:48;;;;;;;6.30;3.20;;;14.40;99.90;;;;;;20654870;28;20034;-49
2021/08/10 01:04:51;;;;;;;10.43;3.53;;;14.00;99.90;;;;;;20650771;28;20058;-54
2021/08/10 01:15:12;;;;;;;4.22;2.83;;;13.80;99.90;;;;;;20648418;28;20452;-48
2021/08/10 01:25:52;;;;;;;4.50;2.83;;;13.70;99.90;;;;;;20648057;28;20026;-51
2021/08/10 01:35:59;;;;;;;6.82;2.65;;;13.60;99.90;;;;;;20647891;28;20081;-50
2021/08/10 01:46:02;;;;;;;6.28;3.15;;;13.50;99.90;;;;;;20647932;28;20030;-51
2021/08/10 01:56:08;;;;;;;4.10;2.33;;;13.40;99.90;;;;;;20646700;28;20038;-51
2021/08/10 02:06:18;;;;;;;5.95;1.95;;;13.20;99.90;;;;;;20676345;28;1240846;-52
2021/08/10 02:16:26;;;;;;;3.38;1.65;;;13.40;99.90;;;;;;20649071;28;20503;-51
2021/08/10 02:26:30;;;;;;;3.33;2.00;;;13.50;99.90;;;;;;20664739;28;20077;-49
2021/08/10 02:36:36;;;;;;;3.42;2.00;;;13.20;99.90;;;;;;20727788;28;20042;-51
2021/08/10 02:46:38;;;;;;;4.15;2.25;;;12.90;99.90;;;;;;20727976;28;20100;-53
2021/08/10 02:56:53;;;;;;;3.28;1.92;;;12.80;99.90;;;;;;20726512;28;20034;-53
2021/08/10 03:06:56;;;;;;;7.85;3.00;;;13.10;99.90;;;;;;20785445;28;20054;-56
2021/08/10 03:17:02;;;;;;;7.60;2.58;;;12.90;99.90;;;;;;20725283;28;20084;-49
2021/08/10 03:27:05;;;;;;;6.82;3.10;;;12.90;99.90;;;;;;20790608;28;20033;-50
2021/08/10 03:37:08;;;;;;;6.13;3.15;;;12.80;99.90;;;;;;20823435;28;20042;-56
2021/08/10 03:47:17;;;;;;;5.28;3.20;;;12.70;99.90;;;;;;20806156;28;20387;-55
2021/08/10 03:57:21;;;;;;;5.13;3.20;;;12.80;99.90;;;;;;20804447;28;20033;-55
2021/08/10 04:07:24;;;;;;;5.65;3.33;;;12.90;99.90;;;;;;20717662;28;20054;-53
2021/08/10 04:17:30;;;;;;;9.43;3.50;;;12.90;99.90;;;;;;20641631;28;20042;-57
2021/08/10 04:27:32;;;;;;;5.13;2.10;;;12.80;99.90;;;;;;20658859;28;20331;-55
2021/08/10 04:37:37;;;;;;;4.50;2.20;;;12.70;99.90;;;;;;20625809;28;20050;-55
2021/08/10 04:47:39;;;;;;;3.53;2.00;;;12.70;99.90;;;;;;20640806;28;20041;-50
2021/08/10 04:57:42;;;;;;;4.00;2.13;;;13.00;99.90;;;;;;20654391;28;20038;-50
2021/08/10 05:07:44;;;;;;;6.30;2.78;;;13.10;99.90;;;;;;20729021;28;20499;-55
2021/08/10 05:17:49;;;;;;;7.47;2.42;;;13.30;99.90;;;;;;20734505;28;20388;-55
2021/08/10 05:27:50;;;;;;;5.40;2.75;;;13.40;99.90;;;;;;20832444;28;20025;-53
2021/08/10 05:37:52;;;;;;;4.85;2.83;;;13.30;99.90;;;;;;20832398;28;20037;-52
2021/08/10 05:47:55;;;;;;;4.38;3.03;;;13.40;99.90;;;;;;20813720;28;20033;-53
2021/08/10 05:57:58;;;;;;;10.95;3.22;;;13.70;99.90;;;;;;20813579;28;20041;-55
2021/08/10 06:08:00;;;;;;;3.58;2.67;;;13.90;99.90;;;;;;20791891;28;20077;-55
2021/08/10 06:18:12;;;;;;;8.45;3.22;;;14.10;99.90;;;;;;20729895;28;20029;-51
2021/08/10 06:28:14;;;;;;;7.15;3.15;;;14.50;99.90;;;;;;20746270;28;20044;-50
2021/08/10 06:38:17;;;;;;;5.13;2.55;;;16.10;99.90;;;;;;20745857;28;20033;-58
2021/08/10 06:48:19;;;;;;;3.25;2.00;;;18.70;99.90;;;;;;20744923;28;20034;-55
2021/08/10 06:58:22;;;;;;;3.92;2.17;;;21.40;99.90;;;;;;20727004;28;20061;-55
2021/08/10 07:08:24;;;;;;;3.80;2.35;;;23.70;99.90;;;;;;20645026;28;20046;-57
2021/08/10 07:18:26;;;;;;;5.05;2.08;;;24.80;97.70;;;;;;20643962;28;20108;-52
2021/08/10 07:28:29;;;;;;;3.10;2.28;;;25.30;95.80;;;;;;20661217;28;20038;-53
2021/08/10 07:38:32;;;;;;;10.48;2.47;;;25.30;95.70;;;;;;20643198;28;20050;-51
2021/08/10 07:48:34;;;;;;;4.30;2.63;;;25.50;94.40;;;;;;20660922;28;20041;-49
2021/08/10 07:58:37;;;;;;;4.30;2.80;;;25.80;93.90;;;;;;20580095;28;20059;-55
2021/08/10 08:08:40;;;;;;;4.28;2.60;;;26.20;93.40;;;;;;20665395;28;20104;-56
2021/08/10 08:18:45;;;;;;;5.53;2.53;;;26.40;93.90;;;;;;20722689;28;20077;-53
2021/08/10 08:28:49;;;;;;;3.10;1.50;;;26.70;92.90;;;;;;20731364;28;20038;-56
2021/08/10 08:38:51;;;;;;;21.73;2.55;;;26.80;92.40;;;;;;20754953;28;20033;-55
2021/08/10 08:48:56;;;;;;;3.35;1.83;;;27.30;91.60;;;;;;20735828;28;20037;-57
2021/08/10 08:58:58;;;;;;;3.13;2.33;;;27.00;90.70;;;;;;20735408;28;20392;-57
2021/08/10 09:09:24;;;;;;;2.67;1.85;;;27.00;90.60;;;;;;20734541;28;20084;-54
2021/08/10 09:20:02;;;;;;;4.68;1.98;;;27.30;90.20;;;;;;20734275;28;20096;-56
2021/08/10 09:30:09;;;;;;;2.30;1.90;;;27.30;90.70;;;;;;20750885;28;20033;-55
2021/08/10 09:40:29;;;;;;;5.25;2.08;;;26.90;90.60;;;;;;20750065;28;20096;-54
2021/08/10 09:50:34;;;;;;;5.40;2.03;;;27.10;90.20;;;;;;20748292;28;20080;-53
2021/08/10 10:00:42;;;;;;;3.65;2.05;;;27.50;91.10;;;;;;20778089;28;20076;-55
2021/08/10 10:10:45;;;;;;;3.33;2.08;;;27.60;89.00;;;;;;20771839;28;20431;-53
2021/08/10 10:20:49;;;;;;;1.92;1.65;;;27.30;91.40;;;;;;20729686;28;20038;-54
2021/08/10 10:30:51;;;;;;;4.60;1.77;;;27.20;90.80;;;;;;20729048;28;20072;-53
2021/08/10 10:41:19;;;;;;;3.70;1.80;;;26.90;91.00;;;;;;20727688;28;20068;-54
2021/08/10 10:51:40;;;;;;;4.25;1.77;;;27.20;91.10;;;;;;20744739;28;20041;-52
2021/08/10 11:01:42;;;;;;;2.65;1.70;;;27.10;90.10;;;;;;20743874;28;20050;-54
2021/08/10 11:11:44;;;;;;;4.95;2.40;;;27.20;91.20;;;;;;20743368;28;20033;-52
2021/08/10 11:21:46;;;;;;;4.43;1.50;;;27.30;92.80;;;;;;20790339;28;20037;-53
2021/08/10 11:31:51;;;;;;;2.65;1.70;;;27.30;87.30;;;;;;20824136;28;20095;-51
2021/08/10 11:41:53;;;;;;;2.65;1.80;;;27.40;84.60;;;;;;20822423;28;20045;-54
2021/08/10 11:51:54;;;;;;;3.58;1.65;;;27.30;85.80;;;;;;20822386;28;20030;-54
2021/08/10 12:01:59;;;;;;;2.80;1.33;;;27.50;89.20;;;;;;20830519;28;20049;-52
2021/08/10 12:12:04;;;;;;;4.72;1.40;;;27.80;84.50;;;;;;20787645;28;20034;-57
2021/08/10 12:22:28;;;;;;;4.82;1.70;;;27.50;85.50;;;;;;20809103;28;20060;-53
2021/08/10 12:32:33;;;;;;;4.63;1.77;;;27.50;88.50;;;;;;20837914;28;20079;-55
2021/08/10 12:42:38;;;;;;;5.13;1.85;;;28.00;88.10;;;;;;20837262;28;20034;-52
2021/08/10 12:52:45;;;;;;;5.38;2.03;;;27.50;90.20;;;;;;20750773;28;20030;-58
2021/08/10 13:02:50;;;;;;;3.00;2.15;;;27.80;90.80;;;;;;20828379;28;20053;-58
2021/08/10 13:12:54;;;;;;;3.92;2.35;;;28.30;90.30;;;;;;20751570;28;20388;-56
2021/08/10 13:23:04;;;;;;;6.10;2.58;;;28.20;85.10;;;;;;20720412;28;20030;-61
